Time;durP1;ratioP1;P1;durP2;ratioP2;P2;SDS_P1;SDS_P2;PMS_P1;PMS_P2;Temp;Humidity;BMP_temperature;BMP_pressure;BME280_temperature;BME280_humidity;BME280_pressure;Samples;Min_cycle;Max_cycle;Signal;HPM_P1;HPM_P2
2023/03/05 00:01:25;;;;;;;27.23;12.90;;;2.60;99.90;;;;;;5114988;28;20038;-72
2023/03/05 00:03:53;;;;;;;26.73;12.88;;;2.60;99.90;;;;;;5114868;28;20169;-72
2023/03/05 00:06:20;;;;;;;26.45;12.88;;;2.60;99.90;;;;;;5116166;28;20457;-72
2023/03/05 00:08:46;;;;;;;23.13;12.88;;;2.60;99.90;;;;;;5114883;28;20035;-72
2023/03/05 00:11:12;;;;;;;28.55;13.15;;;2.60;99.90;;;;;;5116211;27;20116;-72
2023/03/05 00:13:38;;;;;;;29.55;12.43;;;2.60;99.90;;;;;;5114704;28;20458;-72
2023/03/05 00:16:05;;;;;;;27.00;13.88;;;2.60;99.90;;;;;;5114458;28;20154;-72
2023/03/05 00:18:32;;;;;;;32.08;13.52;;;2.60;99.90;;;;;;5114698;28;20042;-72
2023/03/05 00:20:58;;;;;;;27.35;13.80;;;2.60;99.90;;;;;;5116375;28;20107;-72
2023/03/05 00:23:23;;;;;;;28.55;12.95;;;2.60;99.90;;;;;;5114513;28;20067;-72
2023/03/05 00:25:49;;;;;;;27.65;13.57;;;2.60;99.90;;;;;;5115507;28;20023;-72
2023/03/05 00:28:15;;;;;;;31.25;14.05;;;2.60;99.90;;;;;;5118014;28;20520;-72
2023/03/05 00:30:41;;;;;;;27.48;13.02;;;2.60;99.90;;;;;;5116436;28;20024;-72
2023/03/05 00:33:07;;;;;;;26.02;13.45;;;2.60;99.90;;;;;;5115715;28;20035;-72
2023/03/05 00:35:42;;;;;;;25.73;13.13;;;2.60;99.90;;;;;;5115713;28;20027;-72
2023/03/05 00:38:08;;;;;;;27.48;13.15;;;2.60;99.90;;;;;;5115759;28;20027;-71
2023/03/05 00:40:36;;;;;;;27.88;12.95;;;2.60;99.90;;;;;;5115517;28;20020;-72
2023/03/05 00:43:02;;;;;;;30.60;13.57;;;2.60;99.90;;;;;;5115955;28;20019;-71
2023/03/05 00:45:28;;;;;;;25.65;12.80;;;2.60;99.90;;;;;;5115585;28;20249;-72
2023/03/05 00:47:54;;;;;;;22.67;12.07;;;2.60;99.90;;;;;;5113978;28;20030;-72
2023/03/05 00:50:19;;;;;;;26.83;13.93;;;2.60;99.90;;;;;;5114133;28;20039;-72
2023/03/05 00:52:45;;;;;;;26.77;12.32;;;2.60;99.90;;;;;;5113908;28;20020;-72
2023/03/05 00:55:11;;;;;;;26.73;12.38;;;2.60;99.90;;;;;;5113838;28;20023;-72
2023/03/05 00:57:36;;;;;;;29.40;13.23;;;2.60;99.90;;;;;;5114858;28;20019;-72
2023/03/05 01:00:04;;;;;;;24.90;12.35;;;2.60;99.90;;;;;;5115730;28;20052;-72
2023/03/05 01:02:30;;;;;;;29.73;12.85;;;2.60;99.90;;;;;;5115245;28;20122;-72
2023/03/05 01:04:55;;;;;;;25.52;12.15;;;2.60;99.90;;;;;;5113792;28;20110;-72
2023/03/05 01:07:21;;;;;;;26.65;11.63;;;2.70;99.90;;;;;;5115213;28;20455;-72
2023/03/05 01:09:47;;;;;;;27.02;13.25;;;2.60;99.90;;;;;;5113607;28;20092;-72
2023/03/05 01:12:12;;;;;;;21.98;11.63;;;2.60;99.90;;;;;;5113543;28;20027;-72
2023/03/05 01:14:38;;;;;;;27.20;12.63;;;2.70;99.90;;;;;;5113627;28;20123;-72
2023/03/05 01:17:04;;;;;;;26.70;12.82;;;2.60;99.90;;;;;;5115016;28;20024;-72
2023/03/05 01:19:29;;;;;;;27.90;12.35;;;2.60;99.90;;;;;;5113266;28;20023;-72
2023/03/05 01:21:55;;;;;;;26.30;11.43;;;2.60;99.90;;;;;;5114387;28;20068;-72
2023/03/05 01:24:21;;;;;;;26.52;12.70;;;2.60;99.90;;;;;;5114719;28;20019;-72
2023/03/05 01:26:48;;;;;;;26.45;12.55;;;2.60;99.90;;;;;;5113285;28;20055;-72
2023/03/05 01:29:14;;;;;;;27.83;12.63;;;2.60;99.90;;;;;;5113245;28;20033;-72
2023/03/05 01:31:40;;;;;;;27.67;12.27;;;2.60;99.90;;;;;;5113389;28;20046;-72
2023/03/05 01:34:05;;;;;;;25.23;12.48;;;2.60;99.90;;;;;;5114795;28;20023;-72
2023/03/05 01:36:31;;;;;;;28.05;12.70;;;2.70;99.90;;;;;;5112888;28;20028;-72
2023/03/05 01:38:57;;;;;;;27.58;12.50;;;2.60;99.90;;;;;;5114571;28;20024;-72
2023/03/05 01:41:23;;;;;;;24.45;12.32;;;2.60;99.90;;;;;;5113265;28;20067;-73
2023/03/05 01:43:51;;;;;;;26.77;11.80;;;2.70;99.90;;;;;;5114534;28;20380;-72
2023/03/05 01:46:23;;;;;;;25.05;12.70;;;2.70;99.90;;;;;;5113374;28;20024;-72
2023/03/05 01:48:54;;;;;;;24.75;12.52;;;2.70;99.90;;;;;;5114610;28;20032;-72
2023/03/05 01:51:24;;;;;;;23.00;11.88;;;2.70;99.90;;;;;;5113186;28;20036;-72
2023/03/05 01:53:51;;;;;;;29.33;12.40;;;2.70;99.90;;;;;;5113014;28;20028;-72
2023/03/05 01:56:16;;;;;;;24.00;11.43;;;2.70;99.90;;;;;;5113511;28;20468;-72
2023/03/05 01:58:43;;;;;;;26.55;12.63;;;2.70;99.90;;;;;;5112638;28;20052;-73
2023/03/05 02:01:09;;;;;;;25.35;12.95;;;2.70;99.90;;;;;;5113006;28;20027;-72
2023/03/05 02:03:36;;;;;;;24.20;12.57;;;2.70;99.90;;;;;;5112898;28;20054;-72
2023/03/05 02:06:02;;;;;;;25.08;11.48;;;2.70;99.90;;;;;;5114396;28;20110;-72
2023/03/05 02:08:28;;;;;;;27.55;13.35;;;2.70;99.90;;;;;;5114206;28;20027;-72
2023/03/05 02:10:59;;;;;;;25.88;12.52;;;2.70;99.90;;;;;;5114354;28;20032;-72
2023/03/05 02:13:34;;;;;;;25.42;13.23;;;2.70;99.90;;;;;;5112550;28;20073;-72
2023/03/05 02:16:01;;;;;;;26.40;13.30;;;2.60;99.90;;;;;;5114148;28;20035;-72
2023/03/05 02:18:27;;;;;;;25.67;13.18;;;2.60;99.90;;;;;;5112862;28;20031;-72
2023/03/05 02:20:56;;;;;;;25.33;11.77;;;2.50;99.90;;;;;;5112768;28;20379;-72
2023/03/05 02:23:24;;;;;;;25.73;12.73;;;2.50;99.90;;;;;;5113706;28;20051;-72
2023/03/05 02:25:50;;;;;;;29.58;13.07;;;2.50;99.90;;;;;;5113787;28;20053;-72
2023/03/05 02:28:41;;;;;;;26.17;13.13;;;2.50;99.90;;;;;;5113952;28;20034;-72
2023/03/05 02:31:09;;;;;;;26.80;13.18;;;2.60;99.90;;;;;;5115977;28;20027;-72
2023/03/05 02:33:35;;;;;;;24.42;13.15;;;2.60;99.90;;;;;;5118165;28;20023;-71
2023/03/05 02:36:01;;;;;;;21.55;11.43;;;2.60;99.90;;;;;;5117711;28;20080;-73
2023/03/05 02:38:27;;;;;;;24.77;12.55;;;2.60;99.90;;;;;;5116704;28;20027;-72
2023/03/05 02:40:52;;;;;;;24.58;12.55;;;2.60;99.90;;;;;;5116744;28;20499;-72
2023/03/05 02:43:18;;;;;;;29.58;13.38;;;2.60;99.90;;;;;;5116700;28;20031;-72
2023/03/05 02:45:44;;;;;;;24.67;13.05;;;2.60;99.90;;;;;;5118102;28;20027;-72
2023/03/05 02:48:09;;;;;;;24.52;13.25;;;2.70;99.90;;;;;;5115970;28;20530;-72
2023/03/05 02:50:35;;;;;;;24.88;12.35;;;2.70;99.90;;;;;;5116509;28;20028;-72
2023/03/05 02:53:01;;;;;;;23.98;12.48;;;2.60;99.90;;;;;;5117190;28;20484;-72
2023/03/05 02:55:27;;;;;;;26.00;13.15;;;2.70;99.90;;;;;;5116428;28;20028;-72
2023/03/05 02:57:53;;;;;;;25.30;13.05;;;2.70;99.90;;;;;;5117267;28;20525;-72
2023/03/05 03:00:18;;;;;;;25.17;12.90;;;2.70;99.90;;;;;;5116575;28;20042;-72
2023/03/05 03:02:44;;;;;;;29.15;12.93;;;2.70;99.90;;;;;;5116050;28;20024;-72
2023/03/05 03:05:10;;;;;;;28.65;13.00;;;2.70;99.90;;;;;;5117264;28;20031;-72
2023/03/05 03:07:35;;;;;;;23.60;12.43;;;2.70;99.90;;;;;;5115997;28;20028;-72
2023/03/05 03:10:05;;;;;;;24.08;12.63;;;2.70;99.90;;;;;;5117095;28;20028;-72
2023/03/05 03:12:30;;;;;;;23.80;12.25;;;2.70;99.90;;;;;;5117331;28;20106;-72
2023/03/05 03:14:56;;;;;;;23.80;12.70;;;2.70;99.90;;;;;;5116691;28;20062;-72
2023/03/05 03:17:22;;;;;;;25.60;12.80;;;2.70;99.90;;;;;;5117095;28;20452;-72
2023/03/05 03:19:47;;;;;;;25.40;13.10;;;2.80;99.90;;;;;;5115846;28;20040;-73
2023/03/05 03:22:14;;;;;;;23.42;13.55;;;2.80;99.90;;;;;;5115693;28;20130;-72
2023/03/05 03:24:41;;;;;;;31.27;13.73;;;2.70;99.90;;;;;;5115571;28;20028;-72
2023/03/05 03:27:07;;;;;;;26.80;13.38;;;2.80;99.90;;;;;;5115639;28;20114;-72
2023/03/05 03:29:33;;;;;;;26.13;12.77;;;2.80;99.90;;;;;;5116791;28;20063;-73
2023/03/05 03:31:59;;;;;;;26.63;13.50;;;2.80;99.90;;;;;;5115825;28;20138;-72
2023/03/05 03:34:25;;;;;;;25.80;12.85;;;2.80;99.90;;;;;;5115536;28;20038;-72
2023/03/05 03:36:54;;;;;;;28.23;13.68;;;2.80;99.90;;;;;;5116663;28;20361;-73
2023/03/05 03:39:20;;;;;;;27.25;12.88;;;2.80;99.90;;;;;;5115412;28;20078;-73
2023/03/05 03:41:49;;;;;;;29.90;13.18;;;2.80;99.90;;;;;;5115211;28;20028;-72
2023/03/05 03:44:16;;;;;;;32.20;12.35;;;2.70;99.90;;;;;;5115338;28;20407;-72
2023/03/05 03:46:44;;;;;;;32.17;12.48;;;2.80;99.90;;;;;;5116210;28;20034;-72
2023/03/05 03:49:14;;;;;;;24.27;12.73;;;2.80;99.90;;;;;;5115163;28;20066;-73
2023/03/05 03:51:40;;;;;;;24.17;12.45;;;2.80;99.90;;;;;;5115164;28;20031;-72
2023/03/05 03:54:06;;;;;;;25.85;13.18;;;2.70;99.90;;;;;;5115423;28;20023;-73
2023/03/05 03:56:31;;;;;;;26.02;12.18;;;2.80;99.90;;;;;;5115205;28;20422;-72
2023/03/05 03:58:57;;;;;;;27.40;13.15;;;2.70;99.90;;;;;;5116263;28;20381;-72
2023/03/05 04:01:23;;;;;;;23.77;11.80;;;2.80;99.90;;;;;;5116143;28;20081;-73
2023/03/05 04:03:48;;;;;;;26.15;13.07;;;2.80;99.90;;;;;;5114835;28;20070;-72
2023/03/05 04:06:14;;;;;;;23.33;11.95;;;2.80;99.90;;;;;;5115784;28;20020;-72
2023/03/05 04:08:40;;;;;;;23.23;11.32;;;2.80;99.90;;;;;;5114656;28;20054;-72
2023/03/05 04:11:06;;;;;;;25.52;11.88;;;2.80;99.90;;;;;;5114973;28;20461;-72
2023/03/05 04:13:32;;;;;;;23.50;11.85;;;2.80;99.90;;;;;;5116210;28;20027;-72
2023/03/05 04:15:57;;;;;;;22.13;12.48;;;2.80;99.90;;;;;;5114880;28;20039;-72
2023/03/05 04:18:23;;;;;;;23.60;12.07;;;2.80;99.90;;;;;;5114425;28;20400;-73
2023/03/05 04:20:49;;;;;;;23.67;12.43;;;2.80;99.90;;;;;;5114530;28;20102;-72
2023/03/05 04:23:15;;;;;;;25.73;12.50;;;2.80;99.90;;;;;;5114778;28;20019;-73
2023/03/05 04:25:41;;;;;;;24.00;12.68;;;2.80;99.90;;;;;;5115950;28;20091;-72
2023/03/05 04:28:07;;;;;;;25.35;12.50;;;2.80;99.90;;;;;;5116090;28;20463;-73
2023/03/05 04:30:33;;;;;;;27.13;13.02;;;2.80;99.90;;;;;;5114491;28;20032;-73
2023/03/05 04:32:58;;;;;;;21.20;11.32;;;2.80;99.90;;;;;;5115940;28;20031;-72
2023/03/05 04:35:24;;;;;;;26.60;13.02;;;2.80;99.90;;;;;;5117051;28;20024;-71
2023/03/05 04:37:50;;;;;;;28.92;12.95;;;2.70;99.90;;;;;;5116450;28;20384;-72
2023/03/05 04:40:16;;;;;;;24.00;12.27;;;2.70;99.90;;;;;;5117563;28;20023;-72
2023/03/05 04:42:42;;;;;;;24.15;12.95;;;2.70;99.90;;;;;;5116733;28;20019;-72
2023/03/05 04:45:09;;;;;;;23.13;12.40;;;2.70;99.90;;;;;;5115251;28;20028;-71
2023/03/05 04:47:35;;;;;;;24.20;12.38;;;2.70;99.90;;;;;;5114689;28;20067;-72
2023/03/05 04:50:02;;;;;;;23.88;13.40;;;2.70;99.90;;;;;;5115771;28;20085;-72
2023/03/05 04:52:28;;;;;;;22.17;12.18;;;2.70;99.90;;;;;;5114547;28;20027;-72
2023/03/05 04:54:54;;;;;;;26.33;13.38;;;2.80;99.90;;;;;;5113050;28;20176;-72
2023/03/05 04:57:19;;;;;;;29.58;13.60;;;2.80;99.90;;;;;;5116008;28;20026;-72
2023/03/05 04:59:45;;;;;;;25.23;12.70;;;2.70;99.90;;;;;;5115195;28;20051;-72
2023/03/05 05:02:11;;;;;;;28.23;13.27;;;2.70;99.90;;;;;;5115402;28;20026;-72
2023/03/05 05:04:36;;;;;;;24.98;12.35;;;2.70;99.90;;;;;;5114069;28;20072;-72
2023/03/05 05:07:03;;;;;;;22.90;12.77;;;2.70;99.90;;;;;;5113745;28;20062;-72
2023/03/05 05:09:29;;;;;;;24.90;13.38;;;2.70;99.90;;;;;;5113724;28;20043;-72
2023/03/05 05:11:55;;;;;;;30.15;14.95;;;2.80;99.90;;;;;;5115576;28;20059;-72
2023/03/05 05:14:20;;;;;;;25.92;13.65;;;2.80;99.90;;;;;;5115187;28;20035;-72
2023/03/05 05:16:46;;;;;;;23.77;13.30;;;2.70;99.90;;;;;;5115244;28;20077;-72
2023/03/05 05:19:12;;;;;;;29.98;13.43;;;2.70;99.90;;;;;;5115022;28;20034;-72
2023/03/05 05:21:37;;;;;;;24.98;12.95;;;2.70;99.90;;;;;;5115052;28;20023;-71
2023/03/05 05:24:04;;;;;;;27.10;13.75;;;2.70;99.90;;;;;;5113892;28;20020;-72
2023/03/05 05:26:29;;;;;;;25.00;13.15;;;2.70;99.90;;;;;;5114969;28;20072;-72
2023/03/05 05:28:55;;;;;;;29.00;13.50;;;2.70;99.90;;;;;;5114993;28;20032;-72
2023/03/05 05:31:21;;;;;;;29.83;14.65;;;2.70;99.90;;;;;;5114734;28;20070;-71
2023/03/05 05:33:47;;;;;;;28.90;13.07;;;2.70;99.90;;;;;;5113848;28;20031;-72
2023/03/05 05:36:15;;;;;;;27.15;13.50;;;2.80;99.90;;;;;;5114262;28;20027;-72
2023/03/05 05:38:41;;;;;;;23.97;13.20;;;2.70;99.90;;;;;;5114915;28;20037;-72
2023/03/05 05:41:15;;;;;;;28.13;14.45;;;2.80;99.90;;;;;;5114480;28;20250;-72
2023/03/05 05:43:41;;;;;;;26.67;13.98;;;2.80;99.90;;;;;;5113400;28;20032;-72
2023/03/05 05:46:11;;;;;;;27.50;13.48;;;2.80;99.90;;;;;;5114347;28;20031;-71
2023/03/05 05:48:37;;;;;;;29.83;14.55;;;2.80;99.90;;;;;;5114508;28;20032;-71
2023/03/05 05:51:09;;;;;;;27.35;13.88;;;2.80;99.90;;;;;;5113754;28;20368;-70
2023/03/05 05:53:35;;;;;;;33.97;14.43;;;2.80;99.90;;;;;;5114721;28;20031;-70
2023/03/05 05:56:07;;;;;;;27.67;13.07;;;2.80;99.90;;;;;;5114745;28;20034;-70
2023/03/05 05:58:32;;;;;;;23.95;12.40;;;2.80;99.90;;;;;;5114590;28;20108;-71
2023/03/05 06:00:58;;;;;;;27.45;13.55;;;2.90;99.90;;;;;;5114673;28;20445;-71
2023/03/05 06:03:24;;;;;;;24.05;12.35;;;2.90;99.90;;;;;;5114795;28;20023;-70
2023/03/05 06:05:50;;;;;;;24.80;12.75;;;2.90;99.90;;;;;;5116046;28;20024;-70
2023/03/05 06:08:17;;;;;;;30.88;13.45;;;2.90;99.90;;;;;;5118581;28;20061;-71
2023/03/05 06:10:42;;;;;;;24.92;13.00;;;2.90;99.90;;;;;;5117272;28;20031;-70
2023/03/05 06:13:08;;;;;;;24.52;13.50;;;2.90;99.90;;;;;;5117128;28;20376;-70
2023/03/05 06:15:34;;;;;;;25.10;11.73;;;2.90;99.90;;;;;;5118310;28;20059;-70
2023/03/05 06:17:59;;;;;;;24.70;12.73;;;2.90;99.90;;;;;;5118321;28;20376;-71
2023/03/05 06:20:27;;;;;;;25.20;12.38;;;3.00;99.90;;;;;;5116963;28;20023;-71
2023/03/05 06:22:53;;;;;;;28.42;12.57;;;3.00;99.90;;;;;;5118599;28;20058;-71
2023/03/05 06:25:19;;;;;;;27.50;13.00;;;3.00;99.90;;;;;;5118447;28;20457;-71
2023/03/05 06:27:44;;;;;;;30.33;14.05;;;3.00;99.90;;;;;;5117024;28;20023;-70
2023/03/05 06:30:11;;;;;;;25.20;13.07;;;3.00;99.90;;;;;;5117975;28;20452;-71
2023/03/05 06:32:37;;;;;;;27.20;14.02;;;2.90;99.90;;;;;;5117066;28;20365;-71
2023/03/05 06:35:03;;;;;;;28.13;14.02;;;2.90;99.90;;;;;;5116628;28;20227;-72
2023/03/05 06:37:29;;;;;;;26.35;14.75;;;2.90;99.90;;;;;;5117964;28;20051;-72
2023/03/05 06:39:54;;;;;;;31.77;15.80;;;2.90;99.90;;;;;;5117876;28;20070;-71
2023/03/05 06:42:20;;;;;;;26.80;14.20;;;2.90;99.90;;;;;;5118107;28;20027;-71
2023/03/05 06:44:46;;;;;;;27.85;14.30;;;2.90;99.90;;;;;;5117956;28;20495;-71
2023/03/05 06:47:13;;;;;;;31.85;14.15;;;2.90;99.90;;;;;;5117821;28;20573;-71
2023/03/05 06:49:39;;;;;;;31.30;15.63;;;2.90;99.90;;;;;;5116344;28;20028;-71
2023/03/05 06:52:05;;;;;;;30.08;15.82;;;2.90;99.90;;;;;;5116532;28;20031;-71
2023/03/05 06:54:31;;;;;;;33.85;16.05;;;2.90;99.90;;;;;;5117437;28;20031;-73
2023/03/05 06:56:57;;;;;;;33.88;16.42;;;2.80;99.90;;;;;;5116247;28;20376;-73
2023/03/05 06:59:23;;;;;;;33.38;16.70;;;2.80;99.90;;;;;;5115690;28;20460;-73
2023/03/05 07:01:49;;;;;;;34.85;16.58;;;2.90;99.90;;;;;;5116145;28;20076;-73
2023/03/05 07:04:15;;;;;;;36.15;17.42;;;2.90;99.90;;;;;;5116338;28;20023;-72
2023/03/05 07:06:41;;;;;;;35.90;16.25;;;2.90;99.90;;;;;;5116140;28;20031;-72
2023/03/05 07:09:11;;;;;;;33.40;15.77;;;2.90;99.90;;;;;;5117442;28;20028;-72
2023/03/05 07:11:37;;;;;;;36.72;16.60;;;2.90;99.90;;;;;;5117621;28;20054;-72
2023/03/05 07:14:03;;;;;;;33.78;15.82;;;2.90;99.90;;;;;;5115981;28;20067;-72
2023/03/05 07:16:31;;;;;;;37.25;15.38;;;2.90;99.90;;;;;;5116505;28;20027;-61
2023/03/05 07:18:59;;;;;;;26.07;11.70;;;3.00;99.90;;;;;;5117039;28;20049;-60
2023/03/05 07:21:27;;;;;;;29.42;14.63;;;3.20;99.90;;;;;;5115881;28;20293;-72
2023/03/05 07:23:57;;;;;;;37.25;15.77;;;3.30;99.90;;;;;;5116431;28;20024;-72
2023/03/05 07:26:24;;;;;;;26.83;14.95;;;3.20;99.90;;;;;;5116296;28;20388;-72
2023/03/05 07:28:50;;;;;;;32.08;15.13;;;3.10;99.90;;;;;;5116083;28;20024;-72
2023/03/05 07:31:21;;;;;;;28.67;14.05;;;3.10;99.90;;;;;;5116395;28;20028;-72
2023/03/05 07:33:49;;;;;;;28.45;14.43;;;3.10;99.90;;;;;;5117549;28;20094;-71
2023/03/05 07:36:16;;;;;;;32.70;15.13;;;3.00;99.90;;;;;;5115854;28;20423;-68
2023/03/05 07:38:41;;;;;;;26.73;13.95;;;3.00;99.90;;;;;;5115870;28;20077;-71
2023/03/05 07:41:10;;;;;;;28.67;14.82;;;3.00;99.90;;;;;;5115693;28;20024;-72
2023/03/05 07:43:36;;;;;;;20.42;10.77;;;3.00;99.90;;;;;;5116771;28;20051;-72
2023/03/05 07:46:11;;;;;;;28.13;13.38;;;3.10;99.90;;;;;;5115804;28;20034;-72
2023/03/05 07:48:37;;;;;;;29.00;13.52;;;3.10;99.90;;;;;;5115657;28;20031;-72
2023/03/05 07:51:05;;;;;;;29.05;14.18;;;3.10;99.90;;;;;;5115854;28;20027;-72
2023/03/05 07:53:31;;;;;;;31.52;15.30;;;3.10;99.90;;;;;;5115314;28;20023;-72
2023/03/05 07:55:57;;;;;;;25.10;13.88;;;3.20;99.90;;;;;;5115597;28;20034;-72
2023/03/05 07:58:23;;;;;;;30.77;14.82;;;3.20;99.90;;;;;;5115371;28;20052;-69
2023/03/05 08:00:49;;;;;;;32.28;16.27;;;3.30;99.90;;;;;;5116809;28;20051;-69
2023/03/05 08:03:15;;;;;;;28.15;14.35;;;3.30;99.90;;;;;;5115673;28;20034;-70
2023/03/05 08:05:41;;;;;;;30.55;15.15;;;3.20;99.90;;;;;;5116638;28;20027;-69
2023/03/05 08:08:07;;;;;;;27.63;14.95;;;3.30;99.90;;;;;;5117078;28;20050;-69
2023/03/05 08:10:34;;;;;;;28.30;14.88;;;3.30;99.90;;;;;;5115568;28;20418;-70
2023/03/05 08:13:00;;;;;;;32.00;14.35;;;3.40;99.90;;;;;;5117229;28;20028;-69
2023/03/05 08:15:26;;;;;;;29.00;13.80;;;3.40;99.90;;;;;;5116823;28;20019;-71
2023/03/05 08:17:51;;;;;;;34.08;16.10;;;3.40;99.90;;;;;;5116363;28;20103;-71
2023/03/05 08:20:18;;;;;;;27.55;14.00;;;3.40;99.90;;;;;;5115236;28;20086;-71
2023/03/05 08:22:44;;;;;;;32.35;14.77;;;3.40;99.90;;;;;;5115284;28;20023;-69
2023/03/05 08:25:11;;;;;;;29.05;13.70;;;3.50;99.90;;;;;;5115529;28;20423;-70
2023/03/05 08:27:39;;;;;;;30.08;14.77;;;3.50;99.90;;;;;;5114844;28;20115;-68
2023/03/05 08:30:05;;;;;;;36.65;16.13;;;3.50;99.90;;;;;;5114932;28;20028;-68
2023/03/05 08:32:31;;;;;;;30.35;15.18;;;3.50;99.90;;;;;;5114582;28;20031;-69
2023/03/05 08:34:57;;;;;;;32.03;14.90;;;3.60;99.90;;;;;;5115458;28;20024;-69
2023/03/05 08:37:23;;;;;;;32.28;16.10;;;3.60;99.90;;;;;;5115311;28;20485;-69
2023/03/05 08:39:49;;;;;;;32.05;14.85;;;3.70;99.90;;;;;;5114656;28;20034;-68
2023/03/05 08:42:15;;;;;;;31.23;14.73;;;3.60;99.90;;;;;;5115649;28;20102;-69
2023/03/05 08:44:40;;;;;;;33.95;15.27;;;3.60;99.90;;;;;;5116169;28;20040;-68
2023/03/05 08:47:06;;;;;;;31.55;15.52;;;3.60;99.90;;;;;;5115814;28;20077;-71
2023/03/05 08:49:32;;;;;;;28.55;15.02;;;3.70;99.90;;;;;;5114795;28;20042;-70
2023/03/05 08:51:57;;;;;;;28.15;15.27;;;3.70;99.90;;;;;;5116005;28;20414;-70
2023/03/05 08:54:23;;;;;;;28.05;14.77;;;3.80;99.90;;;;;;5116516;28;20032;-70
2023/03/05 08:56:49;;;;;;;33.38;15.80;;;3.80;99.90;;;;;;5115366;28;20134;-70
2023/03/05 08:59:14;;;;;;;31.52;14.82;;;3.90;99.90;;;;;;5117882;28;20453;-70
2023/03/05 09:01:40;;;;;;;28.98;15.32;;;3.90;99.90;;;;;;5118158;28;20027;-74
2023/03/05 09:04:06;;;;;;;31.85;15.57;;;4.00;99.90;;;;;;5117389;28;20020;-69
2023/03/05 09:06:33;;;;;;;30.35;15.27;;;4.10;99.90;;;;;;5115820;28;20024;-68
2023/03/05 09:08:59;;;;;;;30.88;15.70;;;4.20;99.90;;;;;;5114622;28;20031;-70
2023/03/05 09:11:24;;;;;;;32.72;15.27;;;4.40;99.90;;;;;;5114861;28;20419;-70
2023/03/05 09:13:50;;;;;;;28.13;14.32;;;4.40;99.90;;;;;;5113810;28;20035;-69
2023/03/05 09:16:17;;;;;;;25.42;13.35;;;4.50;99.90;;;;;;5113930;28;20023;-71
2023/03/05 09:18:43;;;;;;;25.77;14.90;;;4.80;99.90;;;;;;5114603;27;20042;-75
2023/03/05 09:21:12;;;;;;;31.40;15.55;;;4.90;99.90;;;;;;5114684;28;20114;-71
2023/03/05 09:23:39;;;;;;;28.15;14.73;;;5.10;99.90;;;;;;5115916;28;20076;-73
2023/03/05 09:26:06;;;;;;;25.90;14.68;;;5.10;99.90;;;;;;5115865;28;20422;-72
2023/03/05 09:28:32;;;;;;;31.30;15.52;;;5.10;99.90;;;;;;5114154;28;20122;-72
2023/03/05 09:31:02;;;;;;;29.10;14.60;;;5.30;99.90;;;;;;5113959;28;20428;-72
2023/03/05 09:33:28;;;;;;;28.63;14.48;;;5.30;99.90;;;;;;5115736;28;20024;-70
2023/03/05 09:35:54;;;;;;;28.00;14.80;;;5.30;99.90;;;;;;5114091;28;20035;-71
2023/03/05 09:38:20;;;;;;;27.00;14.82;;;5.40;99.90;;;;;;5119284;28;20023;-72
2023/03/05 09:41:06;;;;;;;28.42;15.07;;;5.90;99.90;;;;;;5120566;28;20061;-71
2023/03/05 09:44:03;;;;;;;27.65;15.32;;;6.30;99.90;;;;;;5121152;28;20027;-71
2023/03/05 09:46:43;;;;;;;28.92;14.40;;;7.10;99.90;;;;;;5118655;28;20028;-72
2023/03/05 09:49:46;;;;;;;28.02;15.02;;;6.80;99.90;;;;;;5119391;28;20027;-72
2023/03/05 09:52:22;;;;;;;25.13;14.38;;;6.50;99.90;;;;;;5118449;28;20036;-70
2023/03/05 09:54:57;;;;;;;31.52;15.13;;;6.70;99.90;;;;;;5117532;28;20032;-69
2023/03/05 09:57:47;;;;;;;28.27;15.20;;;6.90;99.90;;;;;;5117551;28;20035;-62
2023/03/05 10:00:44;;;;;;;23.65;13.73;;;7.00;99.90;;;;;;5114305;28;20130;-60
2023/03/05 10:03:20;;;;;;;25.83;14.70;;;7.30;99.50;;;;;;5107822;28;20051;-60
2023/03/05 10:06:14;;;;;;;27.27;14.32;;;7.60;98.90;;;;;;5114051;28;20023;-60
2023/03/05 10:09:01;;;;;;;29.90;15.02;;;8.00;97.10;;;;;;5070071;28;20500;-60
2023/03/05 10:11:48;;;;;;;29.55;15.30;;;8.20;96.40;;;;;;5114339;28;20020;-60
2023/03/05 10:14:18;;;;;;;32.63;14.93;;;7.90;96.30;;;;;;5114229;28;20095;-61
2023/03/05 10:17:14;;;;;;;27.58;13.80;;;7.60;97.20;;;;;;5114298;28;20396;-60
2023/03/05 10:20:22;;;;;;;26.48;14.20;;;7.30;97.50;;;;;;5113238;28;20164;-61
2023/03/05 10:23:23;;;;;;;29.52;15.05;;;7.30;98.20;;;;;;5113594;28;20023;-71
2023/03/05 10:26:01;;;;;;;29.00;14.90;;;7.10;98.20;;;;;;5120113;28;20028;-72
2023/03/05 10:28:34;;;;;;;29.25;14.68;;;6.80;98.20;;;;;;5120249;28;20084;-71
2023/03/05 10:31:15;;;;;;;35.75;15.70;;;6.60;99.00;;;;;;5118147;28;20476;-72
2023/03/05 10:34:11;;;;;;;30.90;15.82;;;6.50;99.90;;;;;;5120041;28;20103;-72
2023/03/05 10:36:56;;;;;;;28.65;14.32;;;6.90;99.00;;;;;;5118093;28;20062;-72
2023/03/05 10:39:39;;;;;;;30.73;14.75;;;7.00;98.50;;;;;;5118680;28;20027;-71
2023/03/05 10:42:24;;;;;;;28.17;14.20;;;7.20;97.60;;;;;;5120452;28;20030;-71
2023/03/05 10:44:57;;;;;;;29.60;15.15;;;7.20;96.90;;;;;;5120421;28;20035;-70
2023/03/05 10:47:37;;;;;;;27.65;13.43;;;7.40;96.70;;;;;;5120008;28;20028;-71
2023/03/05 10:50:23;;;;;;;26.30;15.02;;;7.80;96.40;;;;;;5117203;28;20070;-70
2023/03/05 10:53:04;;;;;;;27.25;14.68;;;8.10;94.80;;;;;;5119200;28;20023;-70
2023/03/05 10:55:29;;;;;;;28.77;14.57;;;8.00;94.40;;;;;;5122010;28;20559;-72
2023/03/05 10:57:55;;;;;;;27.30;13.95;;;7.70;94.00;;;;;;5121276;28;20055;-69
2023/03/05 11:00:25;;;;;;;26.75;14.20;;;7.30;95.30;;;;;;5119957;28;20024;-69
2023/03/05 11:02:53;;;;;;;30.83;16.88;;;7.10;95.90;;;;;;5120407;28;20055;-72
2023/03/05 11:06:00;;;;;;;28.13;14.63;;;7.00;96.60;;;;;;5120776;28;20087;-71
2023/03/05 11:08:29;;;;;;;29.30;15.52;;;7.20;96.60;;;;;;5106078;28;20024;-71
2023/03/05 11:11:16;;;;;;;29.17;14.73;;;7.20;95.80;;;;;;5119943;28;20024;-70
2023/03/05 11:14:02;;;;;;;28.65;14.77;;;7.30;96.10;;;;;;5119862;28;20034;-71
2023/03/05 11:16:31;;;;;;;23.88;13.82;;;7.40;95.70;;;;;;5121417;28;20046;-70
2023/03/05 11:19:28;;;;;;;36.33;14.65;;;7.40;94.80;;;;;;5119366;27;20529;-70
2023/03/05 11:22:06;;;;;;;30.45;15.68;;;7.50;95.00;;;;;;5117665;28;20027;-70
2023/03/05 11:24:32;;;;;;;29.70;14.05;;;7.40;94.60;;;;;;5119748;28;20024;-70
2023/03/05 11:26:58;;;;;;;29.80;14.25;;;7.40;94.50;;;;;;5119519;27;20085;-70
2023/03/05 11:29:30;;;;;;;26.80;14.25;;;7.40;94.70;;;;;;5119072;28;20504;-70
2023/03/05 11:32:24;;;;;;;26.20;13.85;;;7.70;94.40;;;;;;5119115;28;20084;-70
2023/03/05 11:34:50;;;;;;;29.25;15.00;;;7.50;93.60;;;;;;5120519;28;20065;-70
2023/03/05 11:37:25;;;;;;;29.30;14.65;;;6.90;94.60;;;;;;5121522;28;20027;-70
2023/03/05 11:40:09;;;;;;;31.52;15.27;;;6.90;95.40;;;;;;5119563;28;20035;-69
2023/03/05 11:42:39;;;;;;;27.27;13.98;;;6.70;95.60;;;;;;5120490;28;20024;-69
2023/03/05 11:45:05;;;;;;;;;;;6.60;95.50;;;;;;5121662;28;20035;-70
2023/03/05 11:47:31;;;;;;;27.50;13.93;;;6.50;96.20;;;;;;5118780;28;19929;-76
2023/03/05 11:50:14;;;;;;;29.75;13.65;;;6.30;96.50;;;;;;5119887;28;20464;-75
2023/03/05 11:52:52;;;;;;;27.15;12.77;;;6.10;96.70;;;;;;5119509;28;20020;-74
2023/03/05 11:55:26;;;;;;;24.98;12.80;;;6.00;97.10;;;;;;5117804;27;20403;-74
2023/03/05 11:58:11;;;;;;;27.67;13.48;;;5.90;97.30;;;;;;5117475;28;20019;-75
2023/03/05 12:00:40;;;;;;;28.27;13.68;;;5.80;97.50;;;;;;5119080;28;20028;-75
2023/03/05 12:03:20;;;;;;;24.42;12.63;;;5.90;97.50;;;;;;5118634;28;20027;-74
2023/03/05 12:05:53;;;;;;;25.27;12.88;;;5.90;97.40;;;;;;5119051;28;20028;-74
2023/03/05 12:08:25;;;;;;;28.73;13.20;;;5.90;97.40;;;;;;5120754;27;20065;-75
2023/03/05 12:10:52;;;;;;;30.95;14.23;;;5.90;97.70;;;;;;5121462;28;20032;-75
2023/03/05 12:13:34;;;;;;;25.65;12.73;;;5.80;97.90;;;;;;5116792;28;20023;-75
2023/03/05 12:16:19;;;;;;;31.55;13.98;;;5.70;98.20;;;;;;5117894;28;20023;-74
2023/03/05 12:19:02;;;;;;;29.90;14.48;;;5.70;98.20;;;;;;5117641;28;20031;-73
2023/03/05 12:21:28;;;;;;;31.30;14.18;;;5.60;98.50;;;;;;5116446;28;20023;-74
2023/03/05 12:24:03;;;;;;;25.30;12.73;;;5.50;98.40;;;;;;5114950;28;20027;-74
2023/03/05 12:27:01;;;;;;;23.75;12.52;;;5.50;98.80;;;;;;5116203;28;20460;-74
2023/03/05 12:29:32;;;;;;;22.00;12.50;;;5.50;98.70;;;;;;5070659;28;20050;-74
2023/03/05 12:31:59;;;;;;;25.95;11.88;;;5.50;98.30;;;;;;5115193;28;20354;-71
2023/03/05 12:34:40;;;;;;;28.02;13.80;;;5.50;98.40;;;;;;5116106;28;20110;-72
2023/03/05 12:37:22;;;;;;;27.60;13.45;;;5.60;98.50;;;;;;5116981;28;20514;-72
2023/03/05 12:40:03;;;;;;;26.77;12.07;;;5.60;98.40;;;;;;5118420;28;20024;-74
2023/03/05 12:42:29;;;;;;;28.00;12.52;;;5.60;98.60;;;;;;5126825;28;20015;-73
2023/03/05 12:45:18;;;;;;;26.33;12.20;;;5.60;98.60;;;;;;5127205;28;20046;-73
2023/03/05 12:47:56;;;;;;;27.58;13.73;;;5.60;98.50;;;;;;5121860;28;20055;-73
2023/03/05 12:50:46;;;;;;;30.20;14.23;;;5.60;98.50;;;;;;5120601;28;20031;-73